Windhoek, Namibia
Current Conditions -  °F | °C
As of 7:00 PM on Friday 24 Oct 2014 (Local Time) from FYWE Reporting Station
Clear Clear  
Wind Chill: 75°   Ceiling: Unl
Heat Index: 75°   Visibility: 6mi
Dew Point:   Wind: 5mph
Humidity: 6%   Direction: 180°S
Pressure: 30.09"   Gusts: NA
Location:  22.56°S, 17.09°E
Report Text: FYWE 241800Z 18004KT CAVOK 24/M17 Q1019
Loading
Personal Weather Stations






























Interactive Weather Map
Tropical Storm Tracking
New forecast layout! Learn more

10-Day Weather Forecast

Advertisements
Track Severe Weather on mobile